Time;durP1;ratioP1;P1;durP2;ratioP2;P2;SDS_P1;SDS_P2;PMS_P1;PMS_P2;Temp;Humidity;BMP_temperature;BMP_pressure;BME280_temperature;BME280_humidity;BME280_pressure;Samples;Min_cycle;Max_cycle;Signal;HPM_P1;HPM_P2
2024/01/10 00:02:22;;;;;;;18.73;14.25;;;-1.60;14.70;;;;;;5053851;28;20664;-75
2024/01/10 00:05:09;;;;;;;25.13;15.35;;;-1.50;14.50;;;;;;5052631;28;20227;-75
2024/01/10 00:07:55;;;;;;;22.73;14.55;;;-1.50;14.90;;;;;;5060576;28;20215;-75
2024/01/10 00:10:42;;;;;;;21.75;13.32;;;-1.60;14.60;;;;;;5058641;28;20321;-75
2024/01/10 00:13:27;;;;;;;22.65;13.93;;;-1.60;14.40;;;;;;5045558;28;20203;-75
2024/01/10 00:16:14;;;;;;;21.77;13.65;;;-1.50;15.20;;;;;;5053319;28;20770;-75
2024/01/10 00:18:59;;;;;;;20.17;14.23;;;-1.50;14.60;;;;;;5048564;28;20208;-76
2024/01/10 00:21:45;;;;;;;23.27;14.48;;;-1.60;15.30;;;;;;5052663;28;20208;-75
2024/01/10 00:24:31;;;;;;;21.98;14.38;;;-1.40;14.30;;;;;;5045679;28;20262;-75
2024/01/10 00:27:18;;;;;;;23.13;14.18;;;-1.50;14.70;;;;;;5057555;28;20280;-75
2024/01/10 00:30:05;;;;;;;23.92;15.10;;;-1.60;15.30;;;;;;5050226;28;20208;-75
2024/01/10 00:32:50;;;;;;;22.17;15.20;;;-1.70;15.50;;;;;;5055051;28;20238;-75
2024/01/10 00:35:36;;;;;;;25.20;15.00;;;-1.70;15.20;;;;;;5053570;28;20350;-76
2024/01/10 00:38:22;;;;;;;20.88;14.15;;;-1.80;17.00;;;;;;5051387;28;20250;-75
2024/01/10 00:41:08;;;;;;;23.50;15.05;;;-1.80;18.10;;;;;;5058887;28;20215;-74
2024/01/10 00:43:55;;;;;;;25.92;14.50;;;-1.70;15.70;;;;;;5050719;28;20204;-74
2024/01/10 00:46:40;;;;;;;24.13;14.23;;;-1.80;17.40;;;;;;5055101;28;20231;-75
2024/01/10 00:49:26;;;;;;;22.27;14.10;;;-1.80;18.50;;;;;;5056298;28;20610;-75
2024/01/10 00:52:11;;;;;;;22.02;14.07;;;-1.80;18.80;;;;;;5057849;28;20703;-74
2024/01/10 00:54:57;;;;;;;21.60;15.05;;;-1.70;19.00;;;;;;5058625;28;20575;-75
2024/01/10 00:57:43;;;;;;;22.77;15.00;;;-1.70;19.00;;;;;;5047091;28;20216;-75
2024/01/10 01:00:30;;;;;;;25.90;15.00;;;-1.90;21.00;;;;;;5048959;28;20633;-76
2024/01/10 01:03:15;;;;;;;23.13;15.02;;;-2.00;21.00;;;;;;5054245;28;20214;-75
2024/01/10 01:06:01;;;;;;;23.17;15.30;;;-2.10;21.40;;;;;;5058348;28;20603;-75
2024/01/10 01:08:47;;;;;;;23.13;15.27;;;-2.10;20.90;;;;;;5056931;28;20208;-76
2024/01/10 01:11:33;;;;;;;25.98;15.90;;;-2.10;20.90;;;;;;5053840;28;20723;-75
2024/01/10 01:14:18;;;;;;;22.48;14.85;;;-2.10;23.00;;;;;;5057235;28;20220;-75
2024/01/10 01:17:06;;;;;;;24.85;15.25;;;-2.10;22.60;;;;;;5049423;28;20239;-75
2024/01/10 01:19:51;;;;;;;23.08;15.00;;;-2.00;20.90;;;;;;5055661;28;20344;-74
2024/01/10 01:22:37;;;;;;;28.67;17.17;;;-2.10;23.00;;;;;;5070619;28;20323;-75
2024/01/10 01:25:23;;;;;;;21.70;14.05;;;-1.90;21.00;;;;;;5058288;28;20244;-75
2024/01/10 01:28:09;;;;;;;23.48;15.90;;;-1.90;21.40;;;;;;5058195;28;20702;-75
2024/01/10 01:30:54;;;;;;;24.45;14.98;;;-1.90;22.10;;;;;;5059560;28;20211;-75
2024/01/10 01:33:41;;;;;;;24.35;15.00;;;-1.80;21.10;;;;;;5052929;28;20259;-75
2024/01/10 01:36:27;;;;;;;21.90;15.35;;;-1.90;22.20;;;;;;5053354;28;20248;-75
2024/01/10 01:39:13;;;;;;;23.10;14.38;;;-1.90;22.10;;;;;;5056728;28;20244;-75
2024/01/10 01:41:58;;;;;;;22.90;15.68;;;-1.90;22.20;;;;;;5052668;28;20643;-75
2024/01/10 01:44:43;;;;;;;27.05;15.10;;;-1.80;23.10;;;;;;5050727;28;20277;-75
2024/01/10 01:47:29;;;;;;;27.23;16.38;;;-1.80;22.40;;;;;;5052797;28;20207;-75
2024/01/10 01:50:17;;;;;;;24.95;15.30;;;-1.90;22.70;;;;;;5052661;28;20727;-75
2024/01/10 01:53:02;;;;;;;23.40;15.20;;;-1.80;21.60;;;;;;5057185;28;20223;-75
2024/01/10 01:55:48;;;;;;;22.35;15.35;;;-1.80;21.10;;;;;;5050229;28;20359;-75
2024/01/10 01:58:35;;;;;;;22.75;15.45;;;-1.80;20.60;;;;;;5060531;28;20210;-75
2024/01/10 02:01:21;;;;;;;23.77;16.35;;;-1.80;21.10;;;;;;5058815;28;20323;-75
2024/01/10 02:04:07;;;;;;;24.27;15.10;;;-1.90;19.90;;;;;;5056828;28;20749;-75
2024/01/10 02:06:54;;;;;;;26.42;15.30;;;-1.80;20.20;;;;;;5050630;28;20217;-76
2024/01/10 02:09:39;;;;;;;27.55;17.13;;;-1.70;20.30;;;;;;5053187;28;20690;-75
2024/01/10 02:12:25;;;;;;;27.02;16.98;;;-1.80;19.30;;;;;;5056288;28;20247;-75
2024/01/10 02:15:11;;;;;;;25.77;15.98;;;-1.80;19.50;;;;;;5053387;28;20223;-75
2024/01/10 02:17:57;;;;;;;23.73;15.75;;;-1.80;19.00;;;;;;5052470;28;20209;-75
2024/01/10 02:20:44;;;;;;;27.02;16.48;;;-1.70;19.50;;;;;;5057801;28;20196;-75
2024/01/10 02:23:31;;;;;;;25.17;16.55;;;-1.70;18.50;;;;;;5068660;28;20703;-75
2024/01/10 02:26:18;;;;;;;25.88;16.98;;;-1.70;17.80;;;;;;5065515;28;20788;-75
2024/01/10 02:29:04;;;;;;;27.90;16.80;;;-1.70;18.60;;;;;;5052469;28;20217;-75
2024/01/10 02:31:49;;;;;;;25.08;16.00;;;-1.60;18.90;;;;;;5054520;28;20208;-75
2024/01/10 02:34:35;;;;;;;27.25;15.80;;;-1.70;18.00;;;;;;5051690;28;20335;-76
2024/01/10 02:37:21;;;;;;;25.20;15.75;;;-1.70;19.10;;;;;;5061503;28;20212;-75
2024/01/10 02:40:08;;;;;;;26.58;17.50;;;-1.60;19.20;;;;;;5056527;28;20347;-75
2024/01/10 02:42:55;;;;;;;28.40;16.75;;;-1.60;20.10;;;;;;5062778;28;20593;-76
2024/01/10 02:45:40;;;;;;;26.30;17.60;;;-1.60;19.50;;;;;;5048438;28;20705;-75
2024/01/10 02:48:26;;;;;;;28.25;17.25;;;-1.60;19.30;;;;;;5062279;28;20830;-75
2024/01/10 02:51:12;;;;;;;26.65;17.30;;;-1.60;19.50;;;;;;5063321;28;20579;-76
2024/01/10 02:53:58;;;;;;;26.42;17.80;;;-1.60;18.20;;;;;;5053618;28;20302;-75
2024/01/10 02:56:43;;;;;;;26.58;17.92;;;-1.50;18.40;;;;;;5048829;28;20298;-75
2024/01/10 02:59:30;;;;;;;25.00;17.88;;;-1.40;18.50;;;;;;5051510;28;20778;-75
2024/01/10 03:02:15;;;;;;;25.38;16.23;;;-1.50;19.10;;;;;;5059729;28;20196;-75
2024/01/10 03:05:01;;;;;;;28.55;16.83;;;-1.60;19.00;;;;;;5056050;28;20247;-75
2024/01/10 03:07:46;;;;;;;25.42;17.58;;;-1.60;19.60;;;;;;5066676;28;20729;-75
2024/01/10 03:10:32;;;;;;;26.15;16.55;;;-1.60;18.90;;;;;;5059515;28;20260;-75
2024/01/10 03:13:17;;;;;;;29.33;18.58;;;-1.70;19.30;;;;;;5052105;28;20282;-74
2024/01/10 03:16:05;;;;;;;27.48;18.70;;;-1.70;19.10;;;;;;5055402;28;20263;-74
2024/01/10 03:18:51;;;;;;;24.02;16.42;;;-1.70;20.60;;;;;;5051334;28;20232;-75
2024/01/10 03:21:37;;;;;;;30.60;18.85;;;-1.70;20.10;;;;;;5062947;28;20201;-75
2024/01/10 03:24:24;;;;;;;38.65;17.88;;;-1.60;19.40;;;;;;5055637;28;20570;-75
2024/01/10 03:27:09;;;;;;;26.70;16.95;;;-1.60;19.80;;;;;;5057198;28;20245;-75
2024/01/10 03:29:55;;;;;;;26.77;17.15;;;-1.50;19.30;;;;;;5051374;28;20208;-75
2024/01/10 03:32:42;;;;;;;30.55;18.40;;;-1.50;18.90;;;;;;5048791;28;20228;-75
2024/01/10 03:35:27;;;;;;;23.90;16.40;;;-1.50;18.30;;;;;;5052078;28;20624;-74
2024/01/10 03:38:16;;;;;;;24.63;16.45;;;-1.50;18.60;;;;;;5060008;28;20579;-75
2024/01/10 03:41:02;;;;;;;26.05;16.48;;;-1.60;18.40;;;;;;5062637;28;20218;-75
2024/01/10 03:43:48;;;;;;;30.67;18.40;;;-1.60;19.30;;;;;;5048581;28;20327;-74
2024/01/10 03:46:33;;;;;;;33.50;17.75;;;-1.60;20.20;;;;;;5058833;28;20654;-75
2024/01/10 03:49:20;;;;;;;27.95;16.95;;;-1.60;21.20;;;;;;5060280;28;20409;-75
2024/01/10 03:52:06;;;;;;;28.90;17.00;;;-1.70;22.10;;;;;;5061618;28;20574;-75
2024/01/10 03:54:52;;;;;;;24.65;16.20;;;-1.80;21.10;;;;;;5049331;28;20278;-75
2024/01/10 03:57:38;;;;;;;26.23;16.63;;;-1.80;21.10;;;;;;5050824;28;20661;-75
2024/01/10 04:00:24;;;;;;;33.00;18.73;;;-1.70;21.20;;;;;;5055811;28;20730;-75
2024/01/10 04:03:10;;;;;;;29.10;16.73;;;-1.70;21.60;;;;;;5056508;28;20208;-75
2024/01/10 04:05:57;;;;;;;26.58;15.80;;;-1.70;21.20;;;;;;5049710;28;20303;-75
2024/01/10 04:08:43;;;;;;;27.38;17.60;;;-1.70;22.50;;;;;;5047155;28;20212;-75
2024/01/10 04:11:28;;;;;;;28.15;17.42;;;-1.70;21.80;;;;;;5050565;28;20232;-75
2024/01/10 04:14:15;;;;;;;26.85;16.65;;;-1.80;21.10;;;;;;5058601;28;20337;-75
2024/01/10 04:17:01;;;;;;;27.80;17.65;;;-1.80;22.80;;;;;;5052471;28;20597;-75
2024/01/10 04:19:46;;;;;;;28.77;17.25;;;-1.80;21.80;;;;;;5047958;28;20566;-74
2024/01/10 04:22:33;;;;;;;26.20;16.63;;;-1.80;23.40;;;;;;5059410;28;20571;-75
2024/01/10 04:25:18;;;;;;;27.50;17.88;;;-1.90;21.00;;;;;;5058401;28;20274;-75
2024/01/10 04:28:05;;;;;;;31.27;17.50;;;-2.00;25.30;;;;;;5053673;28;20204;-76
2024/01/10 04:30:50;;;;;;;26.15;16.75;;;-2.00;29.00;;;;;;5053341;28;20196;-75
2024/01/10 04:33:36;;;;;;;29.58;19.02;;;-2.00;28.50;;;;;;5053520;28;20228;-75
2024/01/10 04:36:21;;;;;;;30.25;18.30;;;-2.00;28.00;;;;;;5053165;28;20577;-75
2024/01/10 04:39:09;;;;;;;24.92;16.35;;;-1.90;26.80;;;;;;5056541;28;20560;-75
2024/01/10 04:41:54;;;;;;;26.85;17.73;;;-1.90;26.40;;;;;;5047800;28;20574;-76
2024/01/10 04:44:40;;;;;;;28.77;17.20;;;-1.90;27.70;;;;;;5049251;28;20204;-75
2024/01/10 04:47:25;;;;;;;28.70;16.63;;;-1.70;24.90;;;;;;5053145;28;20315;-76
2024/01/10 04:50:11;;;;;;;27.90;18.40;;;-1.70;24.80;;;;;;5058205;28;20208;-75
2024/01/10 04:52:57;;;;;;;27.95;17.25;;;-1.70;24.00;;;;;;5062030;28;20712;-75
2024/01/10 04:55:44;;;;;;;26.23;17.17;;;-1.70;24.30;;;;;;5057951;28;20270;-75
2024/01/10 04:58:32;;;;;;;25.38;17.63;;;-1.60;21.70;;;;;;5054736;28;20228;-75
2024/01/10 05:01:18;;;;;;;24.35;15.90;;;-1.70;21.20;;;;;;5050305;28;20208;-73
2024/01/10 05:04:03;;;;;;;28.17;16.85;;;-1.70;21.20;;;;;;5056000;28;20213;-75
2024/01/10 05:06:49;;;;;;;27.45;15.88;;;-1.70;21.20;;;;;;5049640;28;20221;-75
2024/01/10 05:09:35;;;;;;;30.95;18.38;;;-1.70;20.60;;;;;;5056969;28;20220;-75
2024/01/10 05:12:22;;;;;;;33.70;17.92;;;-1.60;19.40;;;;;;5061734;28;20672;-75
2024/01/10 05:15:09;;;;;;;32.08;19.75;;;-1.60;19.50;;;;;;5048769;28;20710;-74
2024/01/10 05:17:54;;;;;;;25.05;17.73;;;-1.60;20.90;;;;;;5071578;28;20204;-75
2024/01/10 05:20:39;;;;;;;26.77;16.38;;;-1.60;19.20;;;;;;5069613;28;20208;-74
2024/01/10 05:23:25;;;;;;;27.10;15.73;;;-1.60;20.20;;;;;;5069722;28;20676;-74
2024/01/10 05:26:11;;;;;;;22.85;16.00;;;-1.60;20.00;;;;;;5067302;28;20220;-76
2024/01/10 05:28:58;;;;;;;29.52;18.40;;;-1.70;21.10;;;;;;5064813;28;20201;-74
2024/01/10 05:31:43;;;;;;;28.83;17.75;;;-1.80;21.10;;;;;;5062503;28;20685;-74
2024/01/10 05:34:29;;;;;;;30.50;18.13;;;-1.70;21.20;;;;;;5064865;28;20706;-74
2024/01/10 05:37:15;;;;;;;25.70;16.85;;;-1.70;21.20;;;;;;5056825;28;20255;-74
2024/01/10 05:40:00;;;;;;;24.45;15.98;;;-1.70;21.20;;;;;;5065476;28;20273;-74
2024/01/10 05:42:46;;;;;;;26.40;17.08;;;-1.60;21.80;;;;;;5063686;28;20196;-74
2024/01/10 05:45:34;;;;;;;23.17;15.80;;;-1.70;23.20;;;;;;5067227;28;20227;-74
2024/01/10 05:48:19;;;;;;;28.17;16.95;;;-1.70;23.60;;;;;;5059234;28;20226;-74
2024/01/10 05:51:05;;;;;;;32.72;18.13;;;-1.80;21.80;;;;;;5054706;28;20591;-74
2024/01/10 05:53:51;;;;;;;24.48;16.67;;;-1.80;23.40;;;;;;5063158;28;20225;-75
2024/01/10 05:56:38;;;;;;;24.75;16.58;;;-1.70;22.10;;;;;;5066746;28;20755;-74
2024/01/10 05:59:25;;;;;;;24.30;16.83;;;-1.70;22.90;;;;;;5068939;28;20200;-73
2024/01/10 06:02:12;;;;;;;27.70;16.52;;;-1.70;22.20;;;;;;5064400;28;20204;-74
2024/01/10 06:04:58;;;;;;;24.70;15.32;;;-1.60;21.90;;;;;;5067723;28;20205;-74
2024/01/10 06:07:43;;;;;;;24.13;15.25;;;-1.60;22.20;;;;;;5068896;28;20213;-74
2024/01/10 06:10:29;;;;;;;27.10;16.77;;;-1.60;21.20;;;;;;5071554;28;20245;-75
2024/01/10 06:13:15;;;;;;;27.05;17.35;;;-1.60;21.20;;;;;;5068157;28;20688;-74
2024/01/10 06:16:02;;;;;;;24.30;16.55;;;-1.50;21.30;;;;;;5069450;28;20306;-74
2024/01/10 06:18:49;;;;;;;24.35;15.95;;;-1.50;21.30;;;;;;5068111;28;20282;-74
2024/01/10 06:21:35;;;;;;;24.60;16.38;;;-1.50;21.80;;;;;;5071324;28;20208;-74
2024/01/10 06:24:20;;;;;;;26.23;16.30;;;-1.60;22.40;;;;;;5058166;28;20204;-73
2024/01/10 06:27:06;;;;;;;27.15;17.85;;;-1.60;22.50;;;;;;5068904;28;20235;-74
2024/01/10 06:29:52;;;;;;;25.20;16.15;;;-1.60;21.20;;;;;;5065862;28;20200;-74
2024/01/10 06:32:37;;;;;;;24.77;15.55;;;-1.60;21.20;;;;;;5067097;28;20204;-74
2024/01/10 06:35:24;;;;;;;23.67;14.60;;;-1.50;21.30;;;;;;5065783;28;20568;-74
2024/01/10 06:38:10;;;;;;;23.73;16.33;;;-1.30;21.50;;;;;;5063571;28;20204;-74
2024/01/10 06:40:55;;;;;;;24.05;16.75;;;-1.30;20.60;;;;;;5060862;28;20664;-74
2024/01/10 06:43:41;;;;;;;30.75;17.77;;;-1.40;21.40;;;;;;5066316;28;20199;-74
2024/01/10 06:46:27;;;;;;;24.83;16.58;;;-1.40;21.40;;;;;;5068685;28;20224;-75
2024/01/10 06:49:12;;;;;;;26.35;16.60;;;-1.50;22.40;;;;;;5064055;28;20284;-73
2024/01/10 06:52:00;;;;;;;25.05;16.45;;;-1.60;21.20;;;;;;5069229;28;20211;-74
2024/01/10 06:54:46;;;;;;;28.27;17.63;;;-1.60;21.20;;;;;;5069436;28;20595;-74
2024/01/10 06:57:32;;;;;;;28.42;17.83;;;-1.60;21.20;;;;;;5062479;28;20265;-74
2024/01/10 07:00:19;;;;;;;29.77;16.95;;;-1.60;24.60;;;;;;5066939;28;20561;-74
2024/01/10 07:03:05;;;;;;;29.75;18.27;;;-1.50;24.90;;;;;;5071977;28;20202;-74
2024/01/10 07:05:51;;;;;;;27.50;17.15;;;-1.50;22.70;;;;;;5067440;28;20671;-74
2024/01/10 07:08:38;;;;;;;25.92;17.70;;;-1.60;23.80;;;;;;5071821;28;20210;-74
2024/01/10 07:11:24;;;;;;;25.17;17.20;;;-1.60;25.30;;;;;;5070932;28;20861;-74
2024/01/10 07:14:09;;;;;;;29.75;17.55;;;-1.60;26.60;;;;;;5064877;28;20278;-74
2024/01/10 07:16:56;;;;;;;26.70;17.17;;;-1.50;24.70;;;;;;5068774;28;20747;-74
2024/01/10 07:19:42;;;;;;;24.15;17.27;;;-1.50;25.50;;;;;;5069696;28;20322;-73
2024/01/10 07:22:27;;;;;;;26.58;16.98;;;-1.50;25.10;;;;;;5067802;28;20219;-74
2024/01/10 07:25:15;;;;;;;26.27;18.10;;;-1.40;24.80;;;;;;5069894;28;20240;-74
2024/01/10 07:28:00;;;;;;;28.02;17.65;;;-1.40;23.20;;;;;;5069375;28;20232;-74
2024/01/10 07:30:46;;;;;;;21.98;14.57;;;-1.30;23.50;;;;;;5063250;28;20325;-74
2024/01/10 07:33:32;;;;;;;25.45;16.88;;;-1.40;23.30;;;;;;5068785;28;20222;-74
2024/01/10 07:36:18;;;;;;;26.77;15.90;;;-1.40;23.90;;;;;;5060122;28;20222;-74
2024/01/10 07:39:04;;;;;;;24.42;15.68;;;-1.30;23.60;;;;;;5069937;28;20200;-74
2024/01/10 07:41:51;;;;;;;29.60;18.17;;;-1.30;23.80;;;;;;5069353;28;20266;-74
2024/01/10 07:44:37;;;;;;;28.50;15.10;;;-1.30;24.30;;;;;;5069669;28;20635;-74
2024/01/10 07:47:23;;;;;;;23.80;15.80;;;-1.30;24.20;;;;;;5061947;28;20203;-74
2024/01/10 07:50:12;;;;;;;28.50;17.48;;;-1.20;26.10;;;;;;5071086;28;20200;-74
2024/01/10 07:52:58;;;;;;;28.50;17.30;;;-1.20;26.40;;;;;;5068820;28;20573;-74
2024/01/10 07:55:43;;;;;;;27.10;16.95;;;-1.20;23.90;;;;;;5067208;28;20216;-74
2024/01/10 07:58:30;;;;;;;31.08;18.15;;;-1.20;24.40;;;;;;5070930;28;20343;-74
2024/01/10 08:01:16;;;;;;;27.85;17.48;;;-1.20;24.20;;;;;;5060212;28;20204;-74
2024/01/10 08:04:01;;;;;;;25.98;17.65;;;-1.20;24.90;;;;;;5068505;28;20274;-74
2024/01/10 08:06:47;;;;;;;28.50;16.60;;;-1.10;23.90;;;;;;5065755;28;20319;-74
2024/01/10 08:09:32;;;;;;;26.33;17.65;;;-1.00;23.40;;;;;;5066405;28;20208;-74
2024/01/10 08:12:18;;;;;;;32.08;16.90;;;-0.90;22.30;;;;;;5068976;28;20805;-74
2024/01/10 08:15:07;;;;;;;28.65;17.83;;;-0.80;22.30;;;;;;5069367;28;20239;-74
2024/01/10 08:17:53;;;;;;;29.42;18.58;;;-0.90;22.50;;;;;;5069469;28;20709;-74
2024/01/10 08:20:39;;;;;;;30.58;18.95;;;-0.90;22.90;;;;;;5067241;28;20205;-74
2024/01/10 08:23:24;;;;;;;26.48;17.65;;;-0.90;23.10;;;;;;5062540;28;20204;-74
2024/01/10 08:26:11;;;;;;;29.63;18.58;;;-0.80;21.90;;;;;;5071324;28;20228;-74
2024/01/10 08:28:57;;;;;;;28.13;17.98;;;-0.80;21.90;;;;;;5069510;28;20232;-74
2024/01/10 08:31:44;;;;;;;26.95;17.08;;;-0.80;21.90;;;;;;5070674;28;20216;-74
2024/01/10 08:34:29;;;;;;;25.20;16.52;;;-0.80;21.90;;;;;;5061840;28;20251;-74
2024/01/10 08:37:17;;;;;;;22.83;16.13;;;-0.70;21.90;;;;;;5069500;28;20202;-74
2024/01/10 08:40:07;;;;;;;26.00;16.38;;;-0.80;20.90;;;;;;5062175;28;20243;-74
2024/01/10 08:42:53;;;;;;;29.30;16.35;;;-0.80;21.30;;;;;;5068305;28;20208;-74
2024/01/10 08:45:39;;;;;;;26.35;16.10;;;-0.80;20.60;;;;;;5064113;28;20692;-74
2024/01/10 08:48:26;;;;;;;26.00;15.77;;;-0.70;20.70;;;;;;5065342;28;20254;-74
2024/01/10 08:51:12;;;;;;;27.60;16.80;;;-0.70;20.90;;;;;;5068534;28;20196;-74
2024/01/10 08:53:58;;;;;;;29.48;17.75;;;-0.70;20.90;;;;;;5069389;28;20228;-74
2024/01/10 08:56:43;;;;;;;25.40;17.60;;;-0.70;21.10;;;;;;5053510;28;20270;-74
2024/01/10 08:59:29;;;;;;;25.00;15.88;;;-0.70;21.70;;;;;;5070744;28;20246;-74
2024/01/10 09:02:15;;;;;;;22.17;15.95;;;-0.70;21.90;;;;;;5070589;28;20564;-74
2024/01/10 09:05:03;;;;;;;25.27;16.25;;;-0.70;21.30;;;;;;5071061;28;20204;-74
2024/01/10 09:07:49;;;;;;;23.08;15.60;;;-0.70;21.90;;;;;;5073703;28;20300;-74
2024/01/10 09:10:34;;;;;;;27.00;16.85;;;-0.70;21.90;;;;;;5071530;28;20330;-74
2024/01/10 09:13:20;;;;;;;24.33;15.55;;;-0.70;21.90;;;;;;5052766;28;20558;-74
2024/01/10 09:16:06;;;;;;;26.13;16.80;;;-0.60;22.00;;;;;;5070381;28;20231;-74
2024/01/10 09:18:54;;;;;;;28.88;16.25;;;-0.60;21.50;;;;;;5068663;28;20259;-74
2024/01/10 09:21:41;;;;;;;27.45;15.85;;;-0.60;22.00;;;;;;5068569;28;20284;-74
2024/01/10 09:24:26;;;;;;;25.10;16.35;;;-0.50;21.20;;;;;;5061121;28;20574;-75
2024/01/10 09:27:12;;;;;;;24.85;15.00;;;-0.50;22.10;;;;;;5070522;28;20219;-74
2024/01/10 09:29:58;;;;;;;24.83;14.77;;;-0.50;21.70;;;;;;5062726;28;20277;-74
2024/01/10 09:32:43;;;;;;;25.77;15.98;;;-0.50;22.10;;;;;;5072966;28;20306;-74
2024/01/10 09:35:29;;;;;;;27.63;17.17;;;-0.50;22.10;;;;;;5074168;28;20620;-74
2024/01/10 09:38:16;;;;;;;23.58;15.60;;;-0.50;22.10;;;;;;5074172;28;20323;-74
2024/01/10 09:41:04;;;;;;;26.77;16.30;;;-0.50;22.10;;;;;;5073145;28;20201;-74
2024/01/10 09:43:50;;;;;;;29.02;17.20;;;-0.50;22.60;;;;;;5073144;28;20314;-74
2024/01/10 09:46:38;;;;;;;32.67;19.40;;;-0.30;22.30;;;;;;5065447;28;20228;-74
2024/01/10 09:49:25;;;;;;;27.92;18.98;;;-0.30;21.80;;;;;;5074271;28;20717;-74
2024/01/10 09:52:12;;;;;;;27.58;16.83;;;-0.20;22.30;;;;;;5071996;28;20219;-74
2024/01/10 09:54:59;;;;;;;28.35;16.30;;;-0.10;21.70;;;;;;5074092;28;20274;-74
2024/01/10 09:57:45;;;;;;;24.70;17.23;;;0.00;22.00;;;;;;5074079;28;20207;-74
2024/01/10 10:00:32;;;;;;;27.05;17.73;;;0.10;21.00;;;;;;5074036;28;20208;-74
2024/01/10 10:03:19;;;;;;;24.52;15.85;;;0.10;20.30;;;;;;5069770;28;20241;-74
2024/01/10 10:06:05;;;;;;;25.75;15.38;;;0.20;21.40;;;;;;5071114;28;20225;-74
2024/01/10 10:08:51;;;;;;;30.13;15.88;;;0.30;21.10;;;;;;5072130;28;20222;-74
2024/01/10 10:11:38;;;;;;;22.17;15.90;;;0.40;20.10;;;;;;5073869;28;20315;-74
2024/01/10 10:14:25;;;;;;;28.25;15.93;;;0.40;20.20;;;;;;5062462;28;20290;-74
2024/01/10 10:17:16;;;;;;;25.27;16.30;;;0.50;20.50;;;;;;5073299;28;20199;-74
2024/01/10 10:20:05;;;;;;;28.80;15.80;;;0.60;20.10;;;;;;5072511;28;20208;-74
2024/01/10 10:23:01;;;;;;;26.92;15.40;;;0.50;18.80;;;;;;5069623;28;20211;-74
2024/01/10 10:25:48;;;;;;;28.60;16.80;;;0.50;19.30;;;;;;5073530;28;20232;-74
2024/01/10 10:28:35;;;;;;;24.50;17.45;;;0.50;19.20;;;;;;5068965;28;20211;-74
2024/01/10 10:31:21;;;;;;;26.50;16.70;;;0.70;19.30;;;;;;5073733;28;20218;-74
2024/01/10 10:34:06;;;;;;;29.02;18.27;;;0.80;18.40;;;;;;5074521;28;20199;-74
2024/01/10 10:36:52;;;;;;;32.20;17.13;;;1.00;17.80;;;;;;5073803;28;20228;-74
2024/01/10 10:39:38;;;;;;;27.02;16.38;;;1.20;17.50;;;;;;5050282;28;20263;-74
2024/01/10 10:42:27;;;;;;;26.15;15.95;;;1.60;16.80;;;;;;5053931;28;20579;-74
2024/01/10 10:45:17;;;;;;;29.70;17.13;;;2.10;15.50;;;;;;5057141;28;20216;-74
2024/01/10 10:48:03;;;;;;;27.08;14.73;;;2.30;13.40;;;;;;5057578;28;20582;-74
2024/01/10 10:50:57;;;;;;;25.67;16.05;;;2.50;14.00;;;;;;5058319;28;20686;-74
2024/01/10 10:53:45;;;;;;;26.05;16.83;;;2.80;13.60;;;;;;5054078;28;20308;-74
2024/01/10 10:56:32;;;;;;;25.27;15.75;;;3.10;12.40;;;;;;5049916;28;20248;-74
2024/01/10 10:59:20;;;;;;;22.73;16.20;;;3.40;11.20;;;;;;5053947;28;20204;-74
2024/01/10 11:02:10;;;;;;;25.65;15.80;;;3.50;11.50;;;;;;5061130;28;20633;-74
2024/01/10 11:04:56;;;;;;;26.40;15.40;;;3.50;10.60;;;;;;5063822;28;20669;-74
2024/01/10 11:07:43;;;;;;;26.20;15.07;;;3.60;10.30;;;;;;5062169;28;20204;-74
2024/01/10 11:10:33;;;;;;;26.20;14.60;;;3.70;9.70;;;;;;5049472;28;20210;-74
2024/01/10 11:13:29;;;;;;;29.50;17.23;;;3.80;10.40;;;;;;5048352;28;20202;-74
2024/01/10 11:16:43;;;;;;;24.38;16.13;;;3.70;11.00;;;;;;5053363;28;20590;-75
2024/01/10 11:19:59;;;;;;;26.90;16.10;;;3.60;10.20;;;;;;5047970;28;20209;-75
2024/01/10 11:23:04;;;;;;;28.40;15.75;;;3.60;10.80;;;;;;5063356;28;20208;-75
2024/01/10 11:25:50;;;;;;;27.83;16.88;;;3.40;11.70;;;;;;5055299;28;20298;-75
2024/01/10 11:28:38;;;;;;;24.77;14.98;;;3.60;10.80;;;;;;5059385;28;20328;-75
2024/01/10 11:31:30;;;;;;;30.45;16.60;;;3.50;11.30;;;;;;5046551;28;20197;-75
2024/01/10 11:34:15;;;;;;;27.92;16.10;;;3.40;10.90;;;;;;5045888;28;20220;-75
2024/01/10 11:37:13;;;;;;;25.73;14.98;;;3.10;11.10;;;;;;5054006;28;20247;-75
2024/01/10 11:39:59;;;;;;;23.20;15.30;;;3.00;11.80;;;;;;5053074;28;20589;-75
2024/01/10 11:42:45;;;;;;;31.45;17.08;;;3.00;11.70;;;;;;5060251;28;20209;-75
2024/01/10 11:45:38;;;;;;;23.60;16.35;;;2.90;12.10;;;;;;5050083;28;20225;-75
2024/01/10 11:48:28;;;;;;;26.35;17.33;;;2.80;13.60;;;;;;5047488;28;20200;-74
2024/01/10 11:51:15;;;;;;;28.52;16.90;;;2.60;13.40;;;;;;5048113;28;20220;-76
2024/01/10 11:54:03;;;;;;;25.67;15.43;;;2.40;13.30;;;;;;5061182;28;20216;-75
2024/01/10 11:56:49;;;;;;;29.58;18.08;;;2.30;13.40;;;;;;5053879;28;20755;-74
2024/01/10 11:59:35;;;;;;;26.10;15.55;;;2.40;14.30;;;;;;5059860;28;20224;-75
2024/01/10 12:02:23;;;;;;;25.30;15.25;;;2.30;14.70;;;;;;5047192;28;20272;-74
2024/01/10 12:05:10;;;;;;;26.52;16.65;;;2.30;14.90;;;;;;5052879;28;20275;-74
2024/01/10 12:07:55;;;;;;;30.80;17.92;;;2.20;15.10;;;;;;5053280;28;20201;-75
2024/01/10 12:10:43;;;;;;;33.50;17.80;;;2.20;15.20;;;;;;5059966;28;20205;-75
2024/01/10 12:13:28;;;;;;;31.45;18.52;;;2.20;15.50;;;;;;5046502;28;20213;-75
2024/01/10 12:16:14;;;;;;;25.77;17.20;;;2.30;15.30;;;;;;5059805;28;20240;-75
2024/01/10 12:19:00;;;;;;;26.35;16.95;;;2.20;15.00;;;;;;5068034;28;20588;-74
2024/01/10 12:21:45;;;;;;;29.42;17.30;;;2.20;15.10;;;;;;5052826;28;20221;-75
2024/01/10 12:24:31;;;;;;;28.50;18.00;;;2.20;15.20;;;;;;5047967;28;20200;-75
2024/01/10 12:27:19;;;;;;;32.70;19.35;;;2.30;15.10;;;;;;5059933;28;20564;-74
2024/01/10 12:30:07;;;;;;;28.80;17.08;;;2.40;14.80;;;;;;5063489;28;20209;-74
2024/01/10 12:32:53;;;;;;;27.52;16.08;;;2.50;14.80;;;;;;5063387;28;20208;-75
2024/01/10 12:35:42;;;;;;;30.05;17.02;;;2.50;14.20;;;;;;5056441;28;20691;-75
2024/01/10 12:38:29;;;;;;;33.13;17.88;;;2.60;14.50;;;;;;5055261;28;20259;-75
2024/01/10 12:41:17;;;;;;;28.50;16.60;;;2.90;13.70;;;;;;5053257;28;20265;-76
2024/01/10 12:44:06;;;;;;;29.65;17.63;;;3.10;13.50;;;;;;5053975;28;20212;-75
2024/01/10 12:46:53;;;;;;;28.23;16.02;;;3.60;14.10;;;;;;5052409;28;20267;-75
2024/01/10 12:49:38;;;;;;;31.60;17.38;;;4.20;13.10;;;;;;5053166;28;20268;-75
2024/01/10 12:52:24;;;;;;;30.00;17.95;;;4.70;10.70;;;;;;5055943;28;20236;-75
2024/01/10 12:55:10;;;;;;;25.85;17.17;;;5.10;9.70;;;;;;5048355;28;20231;-74
2024/01/10 12:57:59;;;;;;;28.20;16.50;;;5.40;9.50;;;;;;5055156;28;20209;-75
2024/01/10 13:00:46;;;;;;;27.85;16.92;;;5.60;8.10;;;;;;5057156;28;20257;-75
2024/01/10 13:03:32;;;;;;;25.75;15.75;;;5.70;8.40;;;;;;5048467;28;20214;-75
2024/01/10 13:06:19;;;;;;;28.27;17.10;;;6.00;8.10;;;;;;5060389;28;20226;-75
2024/01/10 13:09:06;;;;;;;25.90;15.27;;;6.70;7.10;;;;;;5058955;28;20210;-75
2024/01/10 13:11:51;;;;;;;24.57;15.93;;;7.30;5.50;;;;;;5061394;28;20432;-75
2024/01/10 13:14:37;;;;;;;25.73;15.97;;;8.00;3.70;;;;;;5054895;28;21059;-76
2024/01/10 13:17:24;;;;;;;28.57;16.20;;;9.00;2.80;;;;;;5053089;28;20434;-74
2024/01/10 13:20:11;;;;;;;24.10;14.93;;;9.80;1.50;;;;;;5059159;28;20464;-76
2024/01/10 13:22:57;;;;;;;23.90;13.47;;;10.30;1.00;;;;;;5059176;28;20945;-74
2024/01/10 13:25:42;;;;;;;30.10;16.10;;;11.30;1.00;;;;;;5061570;28;20453;-75
2024/01/10 13:28:29;;;;;;;26.37;15.73;;;12.30;1.00;;;;;;5052597;28;20425;-76
2024/01/10 13:31:15;;;;;;;23.03;13.93;;;11.60;1.00;;;;;;5059752;28;20427;-74
2024/01/10 13:34:03;;;;;;;23.27;15.27;;;9.70;1.00;;;;;;5060720;28;20443;-74
2024/01/10 13:36:49;;;;;;;28.80;15.23;;;7.90;1.50;;;;;;5060032;28;20490;-75
2024/01/10 13:39:35;;;;;;;27.23;15.33;;;7.00;3.30;;;;;;5054923;28;20430;-75
2024/01/10 13:42:20;;;;;;;28.83;15.80;;;6.00;4.60;;;;;;5052383;28;20429;-76
2024/01/10 13:45:07;;;;;;;26.93;15.73;;;5.30;5.80;;;;;;5066783;28;20454;-75
2024/01/10 13:47:53;;;;;;;25.80;15.17;;;4.60;6.90;;;;;;5059847;28;20515;-73
2024/01/10 13:50:40;;;;;;;29.73;16.92;;;4.10;8.30;;;;;;5057905;28;20429;-75
2024/01/10 13:53:25;;;;;;;27.87;15.00;;;3.80;9.90;;;;;;5062769;28;20328;-74
2024/01/10 13:56:12;;;;;;;28.50;17.27;;;3.70;10.90;;;;;;5057777;28;20833;-75
2024/01/10 13:58:58;;;;;;;29.35;17.80;;;3.60;11.50;;;;;;5065001;28;20495;-74
2024/01/10 14:01:44;;;;;;;29.10;16.17;;;3.40;12.10;;;;;;5053237;28;20313;-75
2024/01/10 14:04:30;;;;;;;28.10;17.15;;;3.20;11.60;;;;;;5056827;28;20220;-75
2024/01/10 14:07:17;;;;;;;25.60;15.63;;;3.10;12.90;;;;;;5060136;28;20278;-75
2024/01/10 14:10:03;;;;;;;24.05;16.73;;;3.10;13.00;;;;;;5065677;28;20297;-75